createdAt,value
2022-11-22T00:01:28.126Z,5.43
2022-11-22T00:03:56.739Z,5.47
2022-11-22T00:06:25.436Z,5.45
2022-11-22T00:08:55.378Z,5.43
2022-11-22T00:11:23.998Z,5.32
2022-11-22T00:13:52.628Z,5.38
2022-11-22T00:16:21.239Z,5.36
2022-11-22T00:18:49.868Z,5.38
2022-11-22T00:21:19.130Z,5.42
2022-11-22T00:23:47.722Z,5.48
2022-11-22T00:26:17.640Z,5.49
2022-11-22T00:28:46.246Z,5.51
2022-11-22T00:31:14.855Z,5.55
2022-11-22T00:33:43.490Z,5.55
2022-11-22T00:36:12.166Z,5.56
2022-11-22T00:38:40.764Z,5.51
2022-11-22T00:41:09.461Z,5.50
2022-11-22T00:43:39.422Z,5.60
2022-11-22T00:46:08.076Z,5.60
2022-11-22T00:48:36.775Z,5.57
2022-11-22T00:51:05.508Z,5.54
2022-11-22T00:53:34.144Z,5.55
2022-11-22T00:56:02.854Z,5.51
2022-11-22T00:58:31.483Z,5.56
2022-11-22T01:01:01.471Z,5.55
2022-11-22T01:03:30.206Z,5.59
2022-11-22T01:05:58.878Z,5.57
2022-11-22T01:08:27.579Z,5.57
2022-11-22T01:10:57.469Z,5.49
2022-11-22T01:13:26.462Z,5.53
2022-11-22T01:15:55.308Z,5.51
2022-11-22T01:18:25.290Z,5.56
2022-11-22T01:20:53.951Z,5.58
2022-11-22T01:23:22.604Z,5.54
2022-11-22T01:25:51.336Z,5.60
2022-11-22T01:28:19.978Z,5.61
2022-11-22T01:30:51.202Z,5.64
2022-11-22T01:33:19.952Z,5.67
2022-11-22T01:35:49.888Z,5.69
2022-11-22T01:38:18.469Z,5.70
2022-11-22T01:40:47.043Z,5.71
2022-11-22T01:43:18.799Z,5.72
2022-11-22T01:45:50.080Z,5.69
2022-11-22T01:48:22.814Z,5.69
2022-11-22T01:50:55.922Z,5.70
2022-11-22T01:53:29.473Z,5.67
2022-11-22T01:55:59.386Z,5.69
2022-11-22T01:58:30.003Z,5.67
2022-11-22T02:00:58.821Z,5.68
2022-11-22T02:03:28.851Z,5.73
2022-11-22T02:05:58.857Z,5.73
2022-11-22T02:08:33.611Z,5.69
2022-11-22T02:11:04.286Z,5.68
2022-11-22T02:13:35.956Z,5.64
2022-11-22T02:16:06.344Z,5.66
2022-11-22T02:18:36.043Z,5.65
2022-11-22T02:21:06.608Z,5.70
2022-11-22T02:23:42.603Z,5.71
2022-11-22T02:26:13.241Z,5.73
2022-11-22T02:28:41.932Z,5.75
2022-11-22T02:31:10.574Z,5.79
2022-11-22T02:33:39.152Z,5.80
2022-11-22T02:36:07.864Z,5.80
2022-11-22T02:38:36.608Z,5.82
2022-11-22T02:41:08.514Z,5.78
2022-11-22T02:43:40.035Z,5.76
2022-11-22T02:46:10.170Z,5.79
2022-11-22T02:48:42.064Z,5.77
2022-11-22T02:51:11.308Z,5.76
2022-11-22T02:53:39.912Z,5.76
2022-11-22T02:56:08.471Z,5.78
2022-11-22T02:58:38.408Z,5.78
2022-11-22T03:01:07.050Z,5.77
2022-11-22T03:03:35.935Z,5.79
2022-11-22T03:06:04.726Z,5.82
2022-11-22T03:08:33.684Z,5.83
2022-11-22T03:11:02.283Z,5.81
2022-11-22T03:13:30.859Z,5.78
2022-11-22T03:16:00.809Z,5.73
2022-11-22T03:18:29.449Z,5.70
2022-11-22T03:21:03.078Z,5.67
2022-11-22T03:23:31.846Z,5.67
2022-11-22T03:26:00.478Z,5.64
2022-11-22T03:28:29.059Z,5.63
2022-11-22T03:31:00.079Z,5.59
2022-11-22T03:33:28.671Z,5.58
2022-11-22T03:35:57.615Z,5.57
2022-11-22T03:38:26.256Z,5.56
2022-11-22T03:40:54.895Z,5.55
2022-11-22T03:43:23.978Z,5.57
2022-11-22T03:45:52.594Z,5.56
2022-11-22T03:48:22.550Z,5.57
2022-11-22T03:50:51.167Z,5.54
2022-11-22T03:53:19.743Z,5.57
2022-11-22T03:55:48.378Z,5.55
2022-11-22T03:58:16.948Z,5.56
2022-11-22T04:00:45.549Z,5.58
2022-11-22T04:03:14.162Z,5.54
2022-11-22T04:05:45.612Z,5.54
2022-11-22T04:08:14.479Z,5.58
2022-11-22T04:10:43.033Z,5.59
2022-11-22T04:13:11.650Z,5.55
2022-11-22T04:15:39.307Z,5.57
2022-11-22T04:18:10.259Z,5.56
2022-11-22T04:20:56.544Z,5.56
2022-11-22T04:23:33.527Z,5.56
2022-11-22T04:26:02.562Z,5.53
2022-11-22T04:28:54.001Z,5.53
2022-11-22T04:31:37.468Z,5.49
2022-11-22T04:34:06.066Z,5.49
2022-11-22T04:36:34.649Z,5.47
2022-11-22T04:39:04.648Z,5.43
2022-11-22T04:41:33.226Z,5.42
2022-11-22T04:44:19.395Z,5.42
2022-11-22T04:46:48.020Z,5.39
2022-11-22T04:49:16.642Z,5.36
2022-11-22T04:52:02.875Z,5.36
2022-11-22T04:54:32.834Z,5.38
2022-11-22T04:57:01.464Z,5.35
2022-11-22T04:59:30.257Z,5.34
2022-11-22T05:01:59.039Z,5.31
2022-11-22T05:04:27.598Z,5.36
2022-11-22T05:06:57.275Z,5.30
2022-11-22T05:09:25.863Z,5.23
2022-11-22T05:11:55.787Z,5.17
2022-11-22T05:14:24.384Z,5.13
2022-11-22T05:16:53.048Z,5.14
2022-11-22T05:19:21.619Z,5.18
2022-11-22T05:21:50.230Z,5.19
2022-11-22T05:24:17.866Z,5.19
2022-11-22T05:26:46.491Z,5.25
2022-11-22T05:29:16.419Z,5.24
2022-11-22T05:31:50.985Z,5.25
2022-11-22T05:34:20.038Z,5.21
2022-11-22T05:36:48.595Z,5.23
2022-11-22T05:39:17.168Z,5.17
2022-11-22T05:41:55.815Z,5.18
2022-11-22T05:44:26.189Z,5.17
2022-11-22T05:46:54.836Z,5.24
2022-11-22T05:49:23.447Z,5.21
2022-11-22T05:51:52.636Z,5.22
2022-11-22T05:54:21.277Z,5.11
2022-11-22T05:56:49.905Z,5.09
2022-11-22T05:59:18.539Z,5.08
2022-11-22T06:01:48.518Z,5.12
2022-11-22T06:04:17.143Z,5.13
2022-11-22T06:06:47.588Z,5.11
2022-11-22T06:09:16.179Z,5.13
2022-11-22T06:11:44.840Z,5.18
2022-11-22T06:14:13.435Z,5.24
2022-11-22T06:16:42.091Z,5.25
2022-11-22T06:19:12.782Z,5.27
2022-11-22T06:21:41.406Z,5.32
2022-11-22T06:24:10.825Z,5.23
2022-11-22T06:26:39.727Z,5.24
2022-11-22T06:29:08.485Z,5.21
2022-11-22T06:31:37.123Z,5.17
2022-11-22T06:34:05.760Z,5.10
2022-11-22T06:36:36.287Z,5.11
2022-11-22T06:39:04.943Z,5.13
2022-11-22T06:41:34.971Z,5.16
2022-11-22T06:44:06.051Z,5.18
2022-11-22T06:46:35.025Z,5.13
2022-11-22T06:49:04.303Z,5.12
2022-11-22T06:51:35.389Z,5.09
2022-11-22T06:54:04.116Z,5.07
2022-11-22T06:56:33.887Z,5.09
2022-11-22T06:59:03.585Z,5.12
2022-11-22T07:01:33.075Z,5.15
2022-11-22T07:04:02.492Z,5.12
2022-11-22T07:06:32.476Z,5.11
2022-11-22T07:09:03.278Z,5.15
2022-11-22T07:11:32.917Z,5.13
2022-11-22T07:14:07.592Z,5.15
2022-11-22T07:16:38.276Z,5.18
2022-11-22T07:19:07.637Z,5.20
2022-11-22T07:21:37.777Z,5.26
2022-11-22T07:24:09.134Z,5.25
2022-11-22T07:26:37.921Z,5.25
2022-11-22T07:29:06.543Z,5.22
2022-11-22T07:31:35.871Z,5.25
2022-11-22T07:34:04.548Z,5.26
2022-11-22T07:36:33.167Z,5.26
2022-11-22T07:39:01.780Z,5.29
2022-11-22T07:41:31.742Z,5.33
2022-11-22T07:44:00.405Z,5.35
2022-11-22T07:46:31.312Z,5.36
2022-11-22T07:49:01.501Z,5.44
2022-11-22T07:51:30.151Z,5.41
2022-11-22T07:53:59.722Z,5.43
2022-11-22T07:56:28.345Z,5.46
2022-11-22T07:58:58.353Z,5.50
2022-11-22T08:01:27.006Z,5.55
2022-11-22T08:03:55.648Z,5.56
2022-11-22T08:06:24.326Z,5.56
2022-11-22T08:08:57.243Z,5.58
2022-11-22T08:11:30.301Z,5.56
2022-11-22T08:14:00.223Z,5.61
2022-11-22T08:16:28.836Z,5.61
2022-11-22T08:18:57.512Z,5.65
2022-11-22T08:21:26.107Z,5.62
2022-11-22T08:23:59.090Z,5.64
2022-11-22T08:26:27.714Z,5.70
2022-11-22T08:28:56.563Z,5.75
2022-11-22T08:31:27.972Z,5.73
2022-11-22T08:33:56.643Z,5.74
2022-11-22T08:36:25.333Z,5.75
2022-11-22T08:38:53.997Z,5.81
2022-11-22T08:41:22.899Z,5.82
2022-11-22T08:43:51.729Z,5.86
2022-11-22T08:46:20.614Z,5.90
2022-11-22T08:48:53.667Z,5.96
2022-11-22T08:51:22.292Z,6.01
2022-11-22T08:53:51.023Z,6.04
2022-11-22T08:56:19.737Z,6.05
2022-11-22T08:58:48.371Z,6.07
2022-11-22T09:01:18.190Z,6.09
2022-11-22T09:03:47.054Z,6.13
2022-11-22T09:09:43.013Z,6.25
2022-11-22T09:11:55.999Z,6.31
2022-11-22T09:14:24.611Z,6.35
2022-11-22T09:16:53.220Z,6.35
2022-11-22T09:19:21.797Z,6.39
2022-11-22T09:21:51.746Z,6.49
2022-11-22T09:24:20.374Z,6.53
2022-11-22T09:26:48.999Z,6.58
2022-11-22T09:29:17.624Z,6.63
2022-11-22T09:31:46.285Z,6.73
2022-11-22T09:34:14.974Z,6.81
2022-11-22T09:36:43.574Z,6.84
2022-11-22T09:39:13.785Z,6.89
2022-11-22T09:42:02.782Z,6.93
2022-11-22T09:44:41.350Z,6.97
2022-11-22T09:47:18.395Z,6.97
2022-11-22T09:49:55.430Z,7.02
2022-11-22T09:52:28.612Z,7.06
2022-11-22T09:55:01.827Z,7.10
2022-11-22T09:57:34.858Z,7.13
2022-11-22T10:00:06.108Z,7.16
2022-11-22T10:02:58.839Z,7.14
2022-11-22T10:05:27.253Z,7.19
2022-11-22T10:07:58.743Z,7.22
2022-11-22T10:10:34.102Z,7.23
2022-11-22T10:13:06.213Z,7.29
2022-11-22T10:15:38.854Z,7.31
2022-11-22T10:18:12.615Z,7.38
2022-11-22T10:20:48.500Z,7.42
2022-11-22T10:23:20.076Z,7.30
2022-11-22T10:25:55.205Z,7.29
2022-11-22T10:28:27.153Z,7.36
2022-11-22T10:31:00.275Z,7.45
2022-11-22T10:33:33.644Z,7.46
2022-11-22T10:36:13.937Z,7.50
2022-11-22T10:39:10.173Z,7.52
2022-11-22T10:41:46.795Z,7.51
2022-11-22T10:44:24.876Z,7.51
2022-11-22T10:46:59.671Z,7.57
2022-11-22T10:49:40.504Z,7.59
2022-11-22T10:52:16.912Z,7.59
2022-11-22T10:54:51.077Z,7.55
2022-11-22T10:57:26.735Z,7.55
2022-11-22T11:00:18.004Z,7.42
2022-11-22T11:03:07.165Z,7.46
2022-11-22T11:05:54.952Z,7.59
2022-11-22T11:09:02.637Z,7.51
2022-11-22T11:11:25.834Z,7.52
2022-11-22T11:13:58.910Z,7.53
2022-11-22T11:16:31.368Z,7.45
2022-11-22T11:19:15.407Z,7.51
2022-11-22T11:21:44.020Z,7.62
2022-11-22T11:24:15.591Z,7.71
2022-11-22T11:26:45.431Z,7.78
2022-11-22T11:29:38.397Z,7.84
2022-11-22T11:32:09.747Z,7.85
2022-11-22T11:34:39.983Z,7.77
2022-11-22T11:37:17.629Z,7.67
2022-11-22T11:39:47.574Z,7.78
2022-11-22T11:42:24.791Z,7.85
2022-11-22T11:44:55.144Z,7.95
2022-11-22T11:47:33.954Z,7.83
2022-11-22T11:50:02.619Z,7.87
2022-11-22T11:52:31.657Z,7.90
2022-11-22T11:55:01.912Z,7.99
2022-11-22T11:57:32.183Z,7.98
2022-11-22T12:00:03.646Z,7.96
2022-11-22T12:02:36.876Z,7.92
2022-11-22T12:05:07.284Z,7.97
2022-11-22T12:07:44.678Z,7.93
2022-11-22T12:10:29.421Z,7.91
2022-11-22T12:13:04.632Z,7.98
2022-11-22T12:15:42.378Z,8.02
2022-11-22T12:18:20.425Z,8.02
2022-11-22T12:20:53.584Z,8.15
2022-11-22T12:23:25.695Z,8.16
2022-11-22T12:25:56.290Z,8.22
2022-11-22T12:28:26.182Z,8.29
2022-11-22T12:30:58.975Z,8.15
2022-11-22T12:33:30.936Z,8.22
2022-11-22T12:36:00.136Z,8.33
2022-11-22T12:38:32.673Z,8.29
2022-11-22T12:41:04.377Z,8.34
2022-11-22T12:43:37.560Z,8.35
2022-11-22T12:46:11.136Z,8.31
2022-11-22T12:48:48.382Z,8.33
2022-11-22T12:51:22.929Z,8.32
2022-11-22T12:53:53.300Z,8.27
2022-11-22T12:56:33.046Z,8.27
2022-11-22T12:59:07.279Z,8.31
2022-11-22T13:01:43.957Z,8.26
2022-11-22T13:04:18.931Z,8.36
2022-11-22T13:06:58.316Z,8.33
2022-11-22T13:09:31.666Z,8.37
2022-11-22T13:12:04.782Z,8.46
2022-11-22T13:14:35.362Z,8.44
2022-11-22T13:17:08.792Z,8.52
2022-11-22T13:19:44.413Z,8.59
2022-11-22T13:22:18.022Z,8.45
2022-11-22T13:24:58.912Z,8.59
2022-11-22T13:27:30.799Z,8.58
2022-11-22T13:30:01.208Z,8.51
2022-11-22T13:32:32.827Z,8.52
2022-11-22T13:35:06.673Z,8.53
2022-11-22T13:37:38.268Z,8.43
2022-11-22T13:40:12.434Z,8.40
2022-11-22T13:42:41.159Z,8.34
2022-11-22T13:45:23.816Z,8.29
2022-11-22T13:47:53.873Z,8.38
2022-11-22T13:51:01.489Z,8.23
2022-11-22T13:53:32.841Z,8.23
2022-11-22T13:56:54.944Z,8.18
2022-11-22T13:59:23.553Z,8.21
2022-11-22T14:02:02.954Z,8.26
2022-11-22T14:04:43.987Z,8.20
2022-11-22T14:07:27.865Z,8.20
2022-11-22T14:09:57.627Z,8.22
2022-11-22T14:12:49.143Z,8.27
2022-11-22T14:15:31.611Z,8.30
2022-11-22T14:18:11.158Z,8.32
2022-11-22T14:20:46.756Z,8.15
2022-11-22T14:23:24.083Z,8.04
2022-11-22T14:26:05.448Z,8.07
2022-11-22T14:29:00.331Z,8.06
2022-11-22T14:31:30.879Z,8.09
2022-11-22T14:34:21.362Z,8.01
2022-11-22T14:37:23.205Z,8.07
2022-11-22T14:40:03.532Z,7.95
2022-11-22T14:42:48.113Z,7.93
2022-11-22T14:45:23.299Z,7.98
2022-11-22T14:48:02.657Z,7.93
2022-11-22T14:50:34.907Z,7.91
2022-11-22T14:53:10.441Z,7.89
2022-11-22T14:55:40.523Z,7.88
2022-11-22T14:58:14.440Z,7.91
2022-11-22T15:00:56.261Z,7.93
2022-11-22T15:03:50.907Z,7.90
2022-11-22T15:09:15.564Z,7.89
2022-11-22T15:09:53.871Z,7.88
2022-11-22T15:12:36.603Z,7.89
2022-11-22T15:57:31.980Z,7.66
2022-11-22T16:00:00.955Z,7.67
2022-11-22T16:02:31.514Z,7.69
2022-11-22T16:06:06.844Z,7.71
2022-11-22T16:07:54.078Z,7.72
2022-11-22T16:10:24.385Z,7.69
2022-11-22T16:12:54.059Z,7.70
2022-11-22T16:15:26.803Z,7.69
2022-11-22T16:18:02.548Z,7.68
2022-11-22T16:20:35.042Z,7.71
2022-11-22T16:23:14.935Z,7.75
2022-11-22T16:25:44.717Z,7.72
2022-11-22T16:28:22.447Z,7.66
2022-11-22T16:30:51.126Z,7.62
2022-11-22T16:33:19.696Z,7.51
2022-11-22T16:35:53.447Z,7.53
2022-11-22T16:38:22.698Z,7.51
2022-11-22T16:40:51.607Z,7.52
2022-11-22T16:43:22.050Z,7.50
2022-11-22T16:45:51.133Z,7.49
2022-11-22T16:48:36.361Z,7.54
2022-11-22T16:51:07.839Z,7.57
2022-11-22T16:53:41.186Z,7.52
2022-11-22T16:56:16.297Z,7.49
2022-11-22T16:58:45.314Z,7.49
2022-11-22T17:01:15.825Z,7.47
2022-11-22T17:03:45.310Z,7.49
2022-11-22T17:06:18.532Z,7.49
2022-11-22T17:08:47.535Z,7.43
2022-11-22T17:11:18.109Z,7.45
2022-11-22T17:13:47.258Z,7.41
2022-11-22T17:16:17.689Z,7.39
2022-11-22T17:18:48.760Z,7.37
2022-11-22T17:21:25.247Z,7.38
2022-11-22T17:23:55.013Z,7.35
2022-11-22T17:26:23.873Z,7.35
2022-11-22T17:28:52.530Z,7.39
2022-11-22T17:31:23.002Z,7.38
2022-11-22T17:33:52.461Z,7.43
2022-11-22T17:36:26.552Z,7.41
2022-11-22T17:38:55.333Z,7.39
2022-11-22T17:41:24.626Z,7.40
2022-11-22T17:43:53.339Z,7.41
2022-11-22T17:46:22.021Z,7.41
2022-11-22T17:48:53.953Z,7.42
2022-11-22T17:51:24.161Z,7.45
2022-11-22T17:53:52.908Z,7.42
2022-11-22T17:56:21.974Z,7.48
2022-11-22T17:58:50.697Z,7.45
2022-11-22T18:01:20.944Z,7.40
2022-11-22T18:03:49.847Z,7.40
2022-11-22T18:06:21.372Z,7.31
2022-11-22T18:08:51.306Z,7.36
2022-11-22T18:11:19.922Z,7.37
2022-11-22T18:13:48.739Z,7.38
2022-11-22T18:16:18.443Z,7.38
2022-11-22T18:19:02.571Z,7.37
2022-11-22T18:21:33.232Z,7.38
2022-11-22T18:24:03.282Z,7.36
2022-11-22T18:26:39.249Z,7.33
2022-11-22T18:31:58.849Z,7.32
2022-11-22T18:34:27.712Z,7.35
2022-11-22T18:37:02.479Z,7.36
2022-11-22T18:39:35.627Z,7.37
2022-11-22T18:42:05.424Z,7.35
2022-11-22T18:44:34.490Z,7.35
2022-11-22T18:47:03.155Z,7.37
2022-11-22T18:49:32.387Z,7.33
2022-11-22T18:52:01.566Z,7.34
2022-11-22T18:54:30.556Z,7.35
2022-11-22T18:57:00.827Z,7.36
2022-11-22T18:59:29.490Z,7.34
2022-11-22T19:01:58.171Z,7.34
2022-11-22T19:04:27.231Z,7.34
2022-11-22T19:06:56.220Z,7.33
2022-11-22T19:09:24.889Z,7.33
2022-11-22T19:11:58.335Z,7.29
2022-11-22T19:14:29.773Z,7.26
2022-11-22T19:16:58.625Z,7.25
2022-11-22T19:19:27.666Z,7.24
2022-11-22T19:21:56.456Z,7.23
2022-11-22T19:24:25.200Z,7.21
2022-11-22T19:26:53.970Z,7.21
2022-11-22T19:29:22.732Z,7.22
2022-11-22T19:31:52.869Z,7.24
2022-11-22T19:34:21.537Z,7.24
2022-11-22T19:36:50.169Z,7.24
2022-11-22T19:39:20.039Z,7.21
2022-11-22T19:41:48.685Z,7.20
2022-11-22T19:44:17.343Z,7.16
2022-11-22T19:46:47.200Z,7.17
2022-11-22T19:49:17.408Z,7.19
2022-11-22T19:51:46.154Z,7.19
2022-11-22T19:54:15.974Z,7.19
2022-11-22T19:56:44.847Z,7.21
2022-11-22T19:59:16.040Z,7.21
2022-11-22T20:01:44.818Z,7.11
2022-11-22T20:04:14.408Z,7.09
2022-11-22T20:06:49.729Z,7.11
2022-11-22T20:09:19.036Z,7.06
2022-11-22T20:11:47.712Z,6.96
2022-11-22T20:14:16.453Z,6.98
2022-11-22T20:16:45.325Z,7.03
2022-11-22T20:19:15.334Z,7.05
2022-11-22T20:21:49.329Z,7.04
2022-11-22T20:24:17.979Z,7.05
2022-11-22T20:26:46.661Z,7.06
2022-11-22T20:29:15.963Z,7.08
2022-11-22T20:31:44.669Z,7.05
2022-11-22T20:34:15.038Z,7.02
2022-11-22T20:36:45.064Z,7.01
2022-11-22T20:39:13.718Z,7.00
2022-11-22T20:41:42.395Z,6.99
2022-11-22T20:44:13.269Z,6.92
2022-11-22T20:46:41.974Z,6.86
2022-11-22T20:49:10.571Z,6.87
2022-11-22T20:51:39.879Z,6.83
2022-11-22T20:54:10.388Z,6.73
2022-11-22T20:56:39.665Z,6.72
2022-11-22T20:59:08.474Z,6.71
2022-11-22T21:01:37.779Z,6.72
2022-11-22T21:04:06.674Z,6.69
2022-11-22T21:06:35.325Z,6.63
2022-11-22T21:09:04.379Z,6.57
2022-11-22T21:11:35.070Z,6.49
2022-11-22T21:14:03.708Z,6.48
2022-11-22T21:16:32.439Z,6.48
2022-11-22T21:19:02.318Z,6.47
2022-11-22T21:21:31.600Z,6.47
2022-11-22T21:24:01.332Z,6.44
2022-11-22T21:26:30.649Z,6.43
2022-11-22T21:29:03.192Z,6.42
2022-11-22T21:31:32.036Z,6.44
2022-11-22T21:34:00.704Z,6.34
2022-11-22T21:36:29.372Z,6.32
2022-11-22T21:38:57.995Z,6.33
2022-11-22T21:41:42.113Z,6.30
2022-11-22T21:44:12.148Z,6.26
2022-11-22T21:46:40.996Z,6.19
2022-11-22T21:49:09.642Z,6.12
2022-11-22T21:51:38.295Z,6.10
2022-11-22T21:54:06.981Z,5.99
2022-11-22T21:56:35.628Z,5.94
2022-11-22T21:59:04.314Z,5.94
2022-11-22T22:01:34.617Z,5.95
2022-11-22T22:04:03.505Z,5.91
2022-11-22T22:06:32.134Z,5.91
2022-11-22T22:09:01.205Z,5.84
2022-11-22T22:11:29.808Z,5.79
2022-11-22T22:13:59.071Z,5.72
2022-11-22T22:16:27.733Z,5.65
2022-11-22T22:18:57.656Z,5.61
2022-11-22T22:21:26.292Z,5.60
2022-11-22T22:23:54.917Z,5.55
2022-11-22T22:26:23.538Z,5.52
2022-11-22T22:28:53.445Z,5.48
2022-11-22T22:31:23.696Z,5.50
2022-11-22T22:33:54.608Z,5.50
2022-11-22T22:36:26.088Z,5.48
2022-11-22T22:38:55.084Z,5.42
2022-11-22T22:41:23.958Z,5.36
2022-11-22T22:43:52.522Z,5.37
2022-11-22T22:46:22.479Z,5.33
2022-11-22T22:48:51.894Z,5.19
2022-11-22T22:51:24.314Z,5.18
2022-11-22T22:53:57.878Z,5.11
2022-11-22T22:56:27.571Z,5.11
2022-11-22T22:58:56.707Z,5.05
2022-11-22T23:01:26.536Z,5.03
2022-11-22T23:03:57.223Z,5.04
2022-11-22T23:06:27.150Z,5.07
2022-11-22T23:08:57.570Z,5.03
2022-11-22T23:11:42.571Z,4.96
2022-11-22T23:14:11.468Z,4.87
2022-11-22T23:16:40.153Z,4.84
2022-11-22T23:19:09.448Z,4.75
2022-11-22T23:21:38.218Z,4.72
2022-11-22T23:24:09.078Z,4.68
2022-11-22T23:26:38.179Z,4.64
2022-11-22T23:29:07.012Z,4.65
2022-11-22T23:31:35.675Z,4.61
2022-11-22T23:34:04.327Z,4.57
2022-11-22T23:36:34.859Z,4.51
2022-11-22T23:39:09.518Z,4.56
2022-11-22T23:41:38.176Z,4.52
2022-11-22T23:44:07.126Z,4.54
2022-11-22T23:46:35.759Z,4.50
2022-11-22T23:49:05.276Z,4.45
2022-11-22T23:51:34.490Z,4.29
2022-11-22T23:54:04.923Z,4.28
2022-11-22T23:56:37.002Z,4.26
2022-11-22T23:59:06.056Z,4.24
